Flight Track Log - Related Links

Times and Time Zones

All times are in EDT time to prevent confusion due to time zone crossing. See the ASQ4219 flight status page for this flight to view local times or setup timezone preferences in your user account.

Time Position Orientation Groundspeed Altitude Reporting Facility
EDT Latitude Longitude Course Direction KTS MPH feet Rate Location/Type
Thu 06:34:58 PM 41.9500 -87.8833 251° West 171 197 3,400  Level Chicago TRACON
Thu 06:36:04 PM 41.9044 -87.9381 222° Southwest 172 198 6,700 2,438 Climbing Chicago Center
Thu 06:37:00 PM 41.8869 -88.3157 255° West  Level FlightAware Approximate
Thu 06:37:06 PM 41.8503 -87.9944 218° Southwest 255 293 8,600  Level Chicago Center
Thu 06:38:00 PM 41.8580 -88.4543 253° West  Level FlightAware Approximate
Thu 06:38:08 PM 41.8292 -88.0900 254° West 261 300 12,000  Level Chicago Center
Thu 06:39:00 PM 41.8263 -88.5918 253° West  Level FlightAware Approximate
Thu 06:39:10 PM 41.8253 -88.1881 267° West 263 303 14,400  Level Chicago Center
Thu 06:40:00 PM 41.7967 -88.7300 251° West  Level FlightAware Approximate
Thu 06:40:12 PM 41.8214 -88.2969 267° West 270 311 15,000  Level Chicago Center
Thu 06:41:15 PM 41.8167 -88.4014 267° West 279 321 16,600 1,248 Climbing Chicago Center
Thu 06:42:17 PM 41.8103 -88.5233 266° West 306 352 17,600 823 Climbing Chicago Center
Thu 06:43:19 PM 41.8044 -88.6500 267° West 350 403 18,300 960 Climbing Chicago Center
Thu 06:44:22 PM 41.7975 -88.7872 266° West 370 426 19,600 1,104 Climbing Chicago Center
Thu 06:45:24 PM 41.7817 -88.9267 261° West 378 435 20,600 1,161 Climbing Chicago Center
Thu 06:46:26 PM 41.7597 -89.0981 260° West 389 448 22,000 1,065 Climbing Chicago Center
Thu 06:47:28 PM 41.7242 -89.2350 251° West 399 459 22,800 774 Climbing Chicago Center
Thu 06:48:30 PM 41.6756 -89.3667 244° Southwest 399 459 23,600 871 Climbing Chicago Center
Thu 06:49:32 PM 41.6269 -89.4981 244° Southwest 399 459 24,600 1,113 Climbing Chicago Center
Thu 06:50:34 PM 41.5753 -89.6400 244° Southwest 391 450 25,900 1,210 Climbing Chicago Center
Thu 06:51:36 PM 41.5264 -89.7644 242° Southwest 386 444 27,100 1,161 Climbing Chicago Center
Thu 06:52:38 PM 41.4772 -89.8856 242° Southwest 377 434 28,300 1,152 Climbing Chicago Center
Thu 06:53:41 PM 41.4281 -90.0031 241° Southwest 371 427 29,500 1,152 Climbing Chicago Center
Thu 06:54:43 PM 41.3792 -90.1225 241° Southwest 369 425 30,700 1,258 Climbing Chicago Center
Thu 06:55:45 PM 41.3192 -90.2647 241° Southwest 370 426 32,100 1,113 Climbing Chicago Center
Thu 06:56:47 PM 41.2697 -90.3842 241° Southwest 370 426 33,000 919 Climbing Chicago Center
Thu 06:57:49 PM 41.2150 -90.5131 241° Southwest 397 457 34,000 968 Climbing Chicago Center
Thu 06:58:51 PM 41.1653 -90.6294 240° Southwest 372 428 35,000 484 Climbing Chicago Center
Thu 06:59:53 PM 41.1131 -90.7506 240° Southwest 374 430 35,000  Level Chicago Center
Thu 07:00:56 PM 41.0492 -90.9017 241° Southwest 389 448 35,000  Level Chicago Center
Thu 07:01:58 PM 40.9956 -91.0258 240° Southwest 390 449 35,000  Level Chicago Center
Thu 07:03:00 PM 40.9431 -91.1492 241° Southwest 388 447 35,000  Level Chicago Center
Thu 07:04:02 PM 40.8894 -91.2731 240° Southwest 388 447 35,000  Level Chicago Center
Thu 07:05:04 PM 40.8353 -91.3975 240° Southwest 388 447 35,000  Level Chicago Center
Thu 07:06:07 PM 40.7722 -91.5467 241° Southwest 389 448 35,000  Level Chicago Center
Thu 07:07:09 PM 40.7289 -91.6783 247° West 390 449 35,000 145 Level Chicago Center
Thu 07:08:11 PM 40.6853 -91.8097 246° West 393 452 35,300 484 Climbing Chicago Center
Thu 07:09:13 PM 40.6417 -91.9356 245° Southwest 386 444 36,000 362 Climbing Chicago Center
Thu 07:10:07 PM 40.5994 -92.0606 246° West 382 440 36,000  Level Kansas City Center
Thu 07:11:09 PM 40.5567 -92.1881 246° West 382 440 36,000  Level Kansas City Center
Thu 07:12:11 PM 40.5122 -92.3169 246° West 386 444 36,000  Level Kansas City Center
Thu 07:13:12 PM 40.4669 -92.4511 246° West 386 444 36,000  Level Kansas City Center
Thu 07:14:14 PM 40.4239 -92.5789 246° West 386 444 36,000  Level Kansas City Center
Thu 07:15:16 PM 40.3769 -92.7108 245° Southwest 385 443 36,000  Level Kansas City Center
Thu 07:16:18 PM 40.3119 -92.8367 236° Southwest 376 433 36,000  Level Kansas City Center
Thu 07:17:19 PM 40.2558 -92.9425 235° Southwest 372 428 36,000  Level Kansas City Center
Thu 07:18:21 PM 40.1897 -93.0694 236° Southwest 372 428 36,000  Level Kansas City Center
Thu 07:19:23 PM 40.1308 -93.1786 235° Southwest 372 428 36,000  Level Kansas City Center
Thu 07:20:25 PM 40.0717 -93.2903 235° Southwest 373 429 36,000  Level Kansas City Center
Thu 07:21:26 PM 40.0114 -93.4014 235° Southwest 374 430 36,000  Level Kansas City Center
Thu 07:22:28 PM 39.9539 -93.5136 236° Southwest 375 432 36,000  Level Kansas City Center
Thu 07:23:30 PM 39.8925 -93.6242 234° Southwest 375 432 36,000  Level Kansas City Center
Thu 07:24:32 PM 39.8214 -93.7578 235° Southwest 376 433 36,000  Level Kansas City Center
Thu 07:25:33 PM 39.7594 -93.8736 235° Southwest 377 434 36,000  Level Kansas City Center
Thu 07:26:35 PM 39.6994 -93.9811 234° Southwest 380 437 36,000  Level Kansas City Center
Thu 07:27:37 PM 39.6311 -94.1078 235° Southwest 382 440 36,000  Level Kansas City Center
Thu 07:28:39 PM 39.5711 -94.2181 235° Southwest 388 447 36,000  Level Kansas City Center
Thu 07:29:41 PM 39.5111 -94.3289 235° Southwest 389 448 36,000  Level Kansas City Center
Thu 07:30:42 PM 39.4392 -94.4597 235° Southwest 397 457 36,000  Level Kansas City Center
Thu 07:31:44 PM 39.3778 -94.5708 234° Southwest 397 457 36,000 -677 Level Kansas City Center
Thu 07:32:46 PM 39.3042 -94.7036 234° Southwest 400 460 34,600 -1,645 Descending Kansas City Center
Thu 07:33:48 PM 39.2442 -94.8217 237° Southwest 405 466 32,600 -2,032 Descending Kansas City Center
Thu 07:34:50 PM 39.1772 -94.9656 239° Southwest 411 473 30,400 -2,032 Descending Kansas City Center
Thu 07:35:52 PM 39.1183 -95.0900 239° Southwest 416 479 28,400 -1,984 Descending Kansas City Center
Thu 07:36:54 PM 39.0525 -95.2239 238° Southwest 426 490 26,300 -2,032 Descending Kansas City Center
Thu 07:37:56 PM 38.9919 -95.3547 239° Southwest 401 461 24,200 -1,122 Descending Kansas City Center
Thu 07:38:57 PM 38.9339 -95.4742 238° Southwest 411 473 24,000 -829 Descending Kansas City Center
Thu 07:39:59 PM 38.8786 -95.5878 238° Southwest 395 455 22,500 -1,790 Descending Kansas City Center
Thu 07:41:01 PM 38.8156 -95.7192 238° Southwest 385 443 20,300 -2,032 Descending Kansas City Center
Thu 07:42:03 PM 38.7586 -95.8333 237° Southwest 392 451 18,300 -1,597 Descending Kansas City Center
Thu 07:43:05 PM 38.6933 -95.9708 239° Southwest 403 464 17,000 -629 Descending Kansas City Center
Thu 07:44:07 PM 38.6358 -96.0900 238° Southwest 405 466 17,000  Level Kansas City Center
Thu 07:45:09 PM 38.5661 -96.2267 237° Southwest 411 473 17,000  Level Kansas City Center
Thu 07:46:11 PM 38.5086 -96.3428 238° Southwest 407 468 17,000  Level Kansas City Center
Thu 07:47:13 PM 38.4431 -96.4719 237° Southwest 406 467 17,000  Level Kansas City Center
Thu 07:48:15 PM 38.3872 -96.5869 238° Southwest 410 472 17,000  Level Kansas City Center
Thu 07:49:16 PM 38.3261 -96.7092 238° Southwest 410 472 17,000  Level Kansas City Center
Thu 07:50:02 PM 38.2714 -96.8203 238° Southwest 408 470 17,000  Level Kansas City Center
Thu 07:50:18 PM 38.2533 -96.8544 236° Southwest 410 472 17,000  Level Kansas City Center
Thu 07:50:44 PM 38.2294 -96.9044 239° Southwest 406 467 17,000 -1,548 Level Kansas City Center
Thu 07:51:20 PM 38.1931 -96.9722 236° Southwest 401 461 15,400 -2,852 Descending Kansas City Center
Thu 07:51:45 PM 38.1628 -97.0136 227° Southwest 389 448 14,100 -3,000 Descending Kansas City Center
Thu 07:52:22 PM 38.1214 -97.0714 228° Southwest 383 441 12,300 -2,800 Descending Kansas City Center
Thu 07:52:45 PM 38.0853 -97.1008 213° Southwest 374 430 11,300 -1,548 Descending Kansas City Center
Thu 07:53:24 PM 38.0269 -97.1283 200° South 381 438 10,700 -787 Descending Kansas City Center
Thu 07:53:46 PM 37.9769 -97.1525 201° Southwest 389 448 10,500 -387 Descending Kansas City Center
Thu 07:54:26 PM 37.9331 -97.1714 199° South 348 400 10,300 -1,180 Descending Kansas City Center
Thu 07:54:47 PM 37.8947 -97.1922 203° Southwest 304 350 9,300 -1,935 Descending Kansas City Center
Thu 07:55:28 PM 37.8528 -97.2111 200° South 310 357 8,300 -2,000 Descending Kansas City Center
Thu 07:55:47 PM 37.8142 -97.2286 200° South 298 343 7,300 -1,967 Descending Kansas City Center
Thu 07:56:29 PM 37.7747 -97.2475 201° Southwest 299 344 6,300 -1,869 Descending Kansas City Center
Thu 07:56:48 PM 37.7381 -97.2644 200° South 292 336 5,400 -2,129 Descending Kansas City Center
Thu 07:57:31 PM 37.6872 -97.2914 203° Southwest 289 333 4,100 -1,800 Descending Kansas City Center
Thu 07:57:48 PM 37.6661 -97.3022 202° Southwest 275 316 3,600 -1,065 Descending Kansas City Center
Thu 07:58:33 PM 37.6186 -97.3289 204° Southwest 277 319 3,000 -627 Descending Kansas City Center
Thu 07:58:55 PM 37.6039 -97.3542 234° Southwest 248 285 2,900 -194 Descending Kansas City Center
Thu 07:59:35 PM 37.5956 -97.4050 258° West 261 300 2,800 -393 Descending Kansas City Center
Thu 07:59:56 PM 37.5986 -97.4289 279° West 191 220 2,500 -1,065 Descending Kansas City Center
Thu 08:00:37 PM 37.6178 -97.4503 319° Northwest 206 237 1,700 -1,100 Descending Kansas City Center
Thu 08:00:56 PM 37.6319 -97.4475 North 131 151 1,400 -197 Descending Kansas City Center
Thu 08:01:38 PM 37.6517 -97.4417 13° North 190 219 1,500 143 Climbing Kansas City Center

Login

Don't have an account? Register now (free) for customized features, flight alerts, and more!